Time;durP1;ratioP1;P1;durP2;ratioP2;P2;SDS_P1;SDS_P2;PMS_P1;PMS_P2;Temp;Humidity;BMP_temperature;BMP_pressure;BME280_temperature;BME280_humidity;BME280_pressure;Samples;Min_cycle;Max_cycle;Signal;HPM_P1;HPM_P2
2022/06/10 00:00:05;;;;;;;41.28;6.30;;;;;;;17.64;76.36;100681.91;5033566;28;20104;-93
2022/06/10 00:02:31;;;;;;;18.98;4.50;;;;;;;17.72;76.48;100682.03;5029279;28;20032;-93
2022/06/10 00:04:56;;;;;;;21.35;4.40;;;;;;;17.68;76.17;100677.16;5013947;28;20104;-92
2022/06/10 00:07:23;;;;;;;26.67;5.32;;;;;;;17.62;76.11;100667.94;5014065;28;20026;-92
2022/06/10 00:09:48;;;;;;;22.63;4.93;;;;;;;17.57;77.18;100675.47;5014207;28;20030;-92
2022/06/10 00:12:13;;;;;;;28.05;5.57;;;;;;;17.68;75.87;100663.88;5013499;28;20026;-93
2022/06/10 00:14:39;;;;;;;22.33;4.22;;;;;;;18.18;73.32;100683.00;5032806;28;20033;-92
2022/06/10 00:17:04;;;;;;;26.55;4.63;;;;;;;17.96;73.10;100680.72;5032184;28;20384;-92
2022/06/10 00:19:30;;;;;;;32.35;5.82;;;;;;;18.13;71.77;100682.63;5033256;28;20064;-92
2022/06/10 00:21:55;;;;;;;21.75;5.25;;;;;;;17.56;73.85;100668.53;5033434;28;20033;-92
2022/06/10 00:24:20;;;;;;;24.73;4.50;;;;;;;17.55;73.91;100685.41;5033142;28;20468;-93
2022/06/10 00:26:46;;;;;;;24.17;5.00;;;;;;;17.42;74.68;100686.56;5032160;28;20411;-93
2022/06/10 00:29:11;;;;;;;24.77;4.10;;;;;;;17.40;74.31;100685.03;5033448;28;20037;-93
2022/06/10 00:31:36;;;;;;;25.63;4.82;;;;;;;17.22;75.32;100680.44;5033063;28;20063;-93
2022/06/10 00:34:02;;;;;;;27.75;4.93;;;;;;;17.24;74.38;100688.25;5033315;28;20065;-92
2022/06/10 00:36:27;;;;;;;27.90;4.82;;;;;;;17.32;73.41;100677.78;5033111;28;20024;-92
2022/06/10 00:38:53;;;;;;;21.33;4.50;;;;;;;17.38;72.74;100677.22;5033291;28;20037;-92
2022/06/10 00:41:19;;;;;;;17.73;4.47;;;;;;;17.35;73.03;100676.66;5032917;28;20030;-92
2022/06/10 00:43:44;;;;;;;27.50;5.03;;;;;;;17.87;71.34;100677.13;5031637;28;20487;-93
2022/06/10 00:46:28;;;;;;;25.00;5.40;;;;;;;17.96;70.50;100675.41;5033040;28;20045;-92
2022/06/10 00:48:56;;;;;;;23.85;4.65;;;;;;;18.04;70.89;100684.31;5032329;28;20502;-93
2022/06/10 00:51:36;;;;;;;37.45;6.03;;;;;;;17.95;69.81;100681.69;5033122;28;20112;-92
2022/06/10 00:54:18;;;;;;;29.83;6.05;;;;;;;18.13;69.89;100679.13;5032663;28;20022;-93
2022/06/10 00:56:50;;;;;;;32.45;5.53;;;;;;;17.92;70.89;100663.41;5032868;28;20030;-92
2022/06/10 00:59:22;;;;;;;27.58;4.90;;;;;;;18.19;70.07;100676.72;5032832;28;20029;-93
2022/06/10 01:01:53;;;;;;;28.77;5.28;;;;;;;18.08;69.97;100663.59;5031406;28;20025;-92
2022/06/10 01:04:18;;;;;;;34.75;6.28;;;;;;;18.26;69.40;100670.81;5012624;28;20036;-93
2022/06/10 01:06:44;;;;;;;23.30;4.97;;;;;;;18.24;69.30;100663.78;5013080;28;20026;-93
2022/06/10 01:09:09;;;;;;;32.20;6.25;;;;;;;18.26;69.49;100668.16;5013082;28;20096;-93
2022/06/10 01:12:04;;;;;;;29.58;4.85;;;;;;;18.36;69.22;100674.25;5011506;28;20137;-93
2022/06/10 01:14:51;;;;;;;30.08;5.47;;;;;;;18.31;68.51;100674.69;5011386;28;20068;-93
2022/06/10 01:17:31;;;;;;;35.15;7.00;;;;;;;18.48;68.43;100673.03;5013734;28;20062;-91
2022/06/10 01:20:06;;;;;;;29.48;5.55;;;;;;;18.41;68.98;100682.63;5012608;28;20346;-93
2022/06/10 01:23:07;;;;;;;29.55;6.80;;;;;;;17.84;71.41;100678.25;5012297;28;20437;-93
2022/06/10 01:25:49;;;;;;;32.67;6.20;;;;;;;18.22;70.16;100676.41;4983762;28;20423;-94
2022/06/10 01:28:50;;;;;;;28.25;5.63;;;;;;;18.43;69.29;100672.69;5011479;28;20026;-93
2022/06/10 01:31:24;;;;;;;23.08;4.35;;;;;;;18.46;69.07;100677.66;5012217;28;20473;-93
2022/06/10 01:34:24;;;;;;;33.70;5.93;;;;;;;18.47;68.90;100671.38;5013426;28;20116;-92
2022/06/10 01:37:00;;;;;;;32.08;6.55;;;;;;;18.50;69.09;100678.22;5012291;28;20025;-91
2022/06/10 01:39:49;;;;;;;28.80;5.50;;;;;;;18.62;69.08;100679.69;5012569;28;20022;-91
2022/06/10 01:42:28;;;;;;;29.85;6.25;;;;;;;18.62;68.91;100683.19;5012256;28;20026;-92
2022/06/10 01:45:11;;;;;;;34.40;5.82;;;;;;;18.53;68.02;100686.75;5012091;28;20057;-93
2022/06/10 01:47:55;;;;;;;26.35;5.28;;;;;;;18.59;68.73;100686.13;5021603;28;20052;-92
2022/06/10 01:50:29;;;;;;;21.67;5.35;;;;;;;18.61;68.59;100701.94;5032037;28;20030;-92
2022/06/10 01:53:00;;;;;;;29.70;5.97;;;;;;;18.52;68.86;100684.22;5031776;28;20025;-93
2022/06/10 01:55:33;;;;;;;30.15;5.90;;;;;;;18.66;67.72;100694.38;5031847;28;20022;-93
2022/06/10 01:58:08;;;;;;;33.75;6.03;;;;;;;18.60;68.12;100689.63;5031932;28;20033;-93
2022/06/10 02:00:37;;;;;;;32.05;5.70;;;;;;;18.40;69.27;100695.09;5033017;28;20025;-92
2022/06/10 02:03:29;;;;;;;31.08;6.30;;;;;;;18.56;68.42;100694.44;5022921;28;20033;-92
2022/06/10 02:06:11;;;;;;;29.23;5.75;;;;;;;18.48;68.89;100698.81;5016861;28;20514;-93
2022/06/10 02:08:52;;;;;;;28.77;5.40;;;;;;;18.57;68.25;100700.59;5018590;28;20056;-92
2022/06/10 02:11:22;;;;;;;20.23;4.13;;;;;;;18.51;68.40;100694.03;5019539;28;20022;-93
2022/06/10 02:13:51;;;;;;;24.67;4.80;;;;;;;18.52;69.01;100703.69;5017017;28;20468;-92
2022/06/10 02:16:20;;;;;;;27.20;6.93;;;;;;;18.48;68.67;100699.63;5018509;28;20068;-93
2022/06/10 02:18:54;;;;;;;32.63;6.85;;;;;;;18.43;68.60;100697.44;5018470;28;20052;-92
2022/06/10 02:21:47;;;;;;;31.73;5.65;;;;;;;18.34;69.46;100700.13;5018300;28;20022;-91
2022/06/10 02:24:18;;;;;;;25.25;4.80;;;;;;;18.45;68.82;100701.78;5018700;28;20388;-92
2022/06/10 02:26:45;;;;;;;;;;;;;;;18.45;68.80;100696.47;5024913;28;20113;-93
2022/06/10 02:29:17;;;;;;;29.20;6.28;;;;;;;18.39;68.75;100698.72;5038291;28;19945;-93
2022/06/10 02:31:48;;;;;;;30.10;5.00;;;;;;;18.36;69.28;100703.47;5038025;28;20092;-92
2022/06/10 02:34:14;;;;;;;21.35;4.10;;;;;;;18.23;70.23;100707.31;5038165;28;20032;-92
2022/06/10 02:36:49;;;;;;;29.00;6.03;;;;;;;18.36;70.20;100709.63;5038025;28;20029;-92
2022/06/10 02:39:59;;;;;;;35.42;6.07;;;;;;;18.44;69.68;100706.22;5036866;28;20391;-92
2022/06/10 02:42:24;;;;;;;24.08;5.40;;;;;;;18.41;70.14;100701.22;5031158;28;20041;-91
2022/06/10 02:45:15;;;;;;;18.58;4.35;;;;;;;18.42;69.78;100706.41;5036873;28;20096;-92
2022/06/10 02:47:57;;;;;;;29.55;5.60;;;;;;;18.38;69.98;100701.50;5038104;28;20033;-92
2022/06/10 02:50:22;;;;;;;28.65;6.57;;;;;;;18.37;69.88;100703.34;5037773;28;20029;-92
2022/06/10 02:52:48;;;;;;;22.83;4.53;;;;;;;18.24;70.30;100695.69;5037668;28;20029;-93
2022/06/10 02:55:19;;;;;;;21.92;5.18;;;;;;;17.79;71.23;100706.19;5036772;28;20459;-92
2022/06/10 03:01:13;;;;;;;20.88;4.28;;;;;;;17.39;72.07;100692.13;5038231;28;20099;-91
2022/06/10 03:04:12;;;;;;;35.65;5.97;;;;;;;17.20;73.33;100705.41;5037554;28;20518;-92
2022/06/10 03:06:49;;;;;;;18.75;4.60;;;;;;;17.18;73.17;100704.72;5037787;28;20030;-93
2022/06/10 03:09:26;;;;;;;14.40;3.30;;;;;;;17.09;72.95;100708.22;5036527;28;20507;-91
2022/06/10 03:12:01;;;;;;;27.90;5.07;;;;;;;16.99;73.26;100708.22;5027165;28;20088;-91
2022/06/10 03:14:43;;;;;;;19.55;4.38;;;;;;;16.92;73.68;100713.22;5020161;28;20045;-91
2022/06/10 03:17:31;;;;;;;18.00;4.00;;;;;;;16.85;73.85;100705.00;5034436;28;20103;-92
2022/06/10 03:20:11;;;;;;;29.00;5.53;;;;;;;16.61;77.03;100713.28;5035001;28;20022;-92
2022/06/10 03:23:05;;;;;;;40.42;6.50;;;;;;;16.86;75.20;100711.13;5034505;28;20025;-92
2022/06/10 03:25:36;;;;;;;31.02;6.20;;;;;;;16.86;75.43;100719.06;5029788;28;20045;-92
2022/06/10 03:28:13;;;;;;;27.08;6.70;;;;;;;17.24;73.15;100712.16;5033318;28;20029;-92
2022/06/10 03:31:03;;;;;;;26.40;6.25;;;;;;;17.35;73.05;100725.25;5031700;28;20483;-92
2022/06/10 03:33:37;;;;;;;32.88;6.03;;;;;;;17.35;72.82;100733.22;5034395;28;20034;-92
2022/06/10 03:36:11;;;;;;;25.85;6.45;;;;;;;17.31;72.66;100715.88;5033108;28;20395;-93
2022/06/10 03:38:43;;;;;;;32.38;6.45;;;;;;;17.36;72.67;100726.09;5034098;28;20017;-92
2022/06/10 03:41:17;;;;;;;;;;;;;;;17.27;72.07;100729.59;5034620;28;20543;-91
2022/06/10 03:43:43;;;;;;;26.10;5.70;;;;;;;16.75;74.36;100727.97;5033856;28;20375;-92
2022/06/10 03:46:12;;;;;;;32.55;7.75;;;;;;;16.60;75.24;100730.16;5033151;28;20061;-92
2022/06/10 03:48:40;;;;;;;37.30;6.22;;;;;;;16.72;75.03;100738.00;5032666;28;20038;-92
2022/06/10 03:51:08;;;;;;;30.38;5.78;;;;;;;16.60;75.58;100739.94;5034002;28;20076;-91
2022/06/10 03:53:33;;;;;;;24.23;5.05;;;;;;;16.51;75.88;100736.28;5034139;28;20029;-93
2022/06/10 03:55:59;;;;;;;22.20;5.60;;;;;;;16.51;75.54;100738.94;5033783;28;20467;-92
2022/06/10 03:58:24;;;;;;;20.75;6.45;;;;;;;16.49;76.00;100753.28;5032750;28;20428;-92
2022/06/10 04:00:49;;;;;;;26.58;5.45;;;;;;;16.42;75.87;100751.16;5033185;28;20032;-93
2022/06/10 04:03:15;;;;;;;27.98;5.68;;;;;;;16.35;76.40;100749.19;5016884;28;20084;-92
2022/06/10 04:05:41;;;;;;;28.40;5.47;;;;;;;16.37;76.29;100744.59;5012447;28;20037;-91
2022/06/10 04:08:06;;;;;;;29.63;5.85;;;;;;;16.36;76.15;100753.53;5013867;28;20184;-91
2022/06/10 04:10:32;;;;;;;30.40;6.25;;;;;;;16.35;75.83;100755.34;5024799;28;20074;-91
2022/06/10 04:12:58;;;;;;;22.15;4.68;;;;;;;16.37;76.03;100757.84;5032003;28;20120;-92
2022/06/10 04:15:27;;;;;;;41.28;7.10;;;;;;;16.34;76.24;100766.06;5033413;28;20040;-92
2022/06/10 04:17:56;;;;;;;30.23;6.68;;;;;;;16.46;75.96;100762.34;5031542;28;20038;-91
2022/06/10 04:20:31;;;;;;;28.65;6.05;;;;;;;16.49;75.65;100759.44;5014455;28;20390;-92
2022/06/10 04:22:56;;;;;;;28.15;6.22;;;;;;;16.61;75.07;100761.00;5013105;28;20018;-91
2022/06/10 04:25:22;;;;;;;29.65;5.75;;;;;;;16.59;75.62;100755.00;5013215;28;20037;-91
2022/06/10 04:27:48;;;;;;;32.75;6.65;;;;;;;16.75;75.05;100764.25;5013572;28;20021;-92
2022/06/10 04:30:29;;;;;;;37.65;6.65;;;;;;;16.91;75.06;100761.94;5013385;28;20022;-92
2022/06/10 04:32:56;;;;;;;41.08;6.70;;;;;;;17.07;74.37;100757.94;5011978;28;20025;-92
2022/06/10 04:35:23;;;;;;;34.53;6.82;;;;;;;17.09;73.60;100755.97;5016338;28;20026;-93
2022/06/10 04:37:49;;;;;;;24.92;4.97;;;;;;;17.13;73.62;100754.72;5031902;28;20175;-91
2022/06/10 04:40:18;;;;;;;40.28;7.93;;;;;;;17.03;73.71;100749.41;5033132;28;20384;-90
2022/06/10 04:42:45;;;;;;;27.65;5.75;;;;;;;16.87;73.06;100757.91;5032913;28;20514;-91
2022/06/10 04:45:11;;;;;;;30.02;6.03;;;;;;;16.95;73.01;100755.41;5031327;28;20034;-92
2022/06/10 04:47:36;;;;;;;30.55;6.45;;;;;;;16.88;73.67;100743.66;5033024;28;20041;-92
2022/06/10 04:50:06;;;;;;;28.98;6.40;;;;;;;17.05;72.59;100752.75;5027589;28;20017;-92
2022/06/10 04:52:33;;;;;;;39.00;8.45;;;;;;;16.90;73.09;100754.94;5013015;28;20443;-92
2022/06/10 04:54:58;;;;;;;32.03;6.25;;;;;;;16.92;72.78;100752.16;5013204;28;20022;-91
2022/06/10 04:57:24;;;;;;;22.55;5.47;;;;;;;17.11;72.01;100754.03;5011718;28;20037;-91
2022/06/10 04:59:49;;;;;;;40.40;7.63;;;;;;;16.92;72.64;100755.66;5012896;28;20041;-91
2022/06/10 05:02:14;;;;;;;30.05;6.13;;;;;;;17.15;72.33;100755.44;5012891;28;20041;-91
2022/06/10 05:04:40;;;;;;;38.67;6.65;;;;;;;17.03;72.07;100747.59;5015567;28;20079;-91
2022/06/10 05:07:05;;;;;;;37.05;6.70;;;;;;;17.07;72.29;100748.16;5019827;28;20028;-91
2022/06/10 05:09:31;;;;;;;33.90;7.45;;;;;;;17.15;71.90;100743.00;5011389;28;20022;-92
2022/06/10 05:11:56;;;;;;;33.13;6.38;;;;;;;17.05;71.79;100740.31;5012684;28;20058;-92
2022/06/10 05:14:21;;;;;;;28.88;5.60;;;;;;;17.14;72.13;100738.69;5012700;28;20373;-92
2022/06/10 05:16:47;;;;;;;35.80;7.47;;;;;;;17.17;72.05;100742.84;5012980;28;20037;-92
2022/06/10 05:19:13;;;;;;;37.58;6.60;;;;;;;17.18;72.01;100740.06;5012653;28;20312;-92
2022/06/10 05:21:38;;;;;;;28.67;6.20;;;;;;;17.70;69.99;100737.09;5011437;28;20033;-91
2022/06/10 05:24:04;;;;;;;25.55;6.15;;;;;;;17.86;69.53;100739.19;5013442;28;20444;-91
2022/06/10 05:26:29;;;;;;;28.88;6.95;;;;;;;18.03;68.69;100740.28;5012380;28;20029;-91
2022/06/10 05:29:01;;;;;;;31.63;6.07;;;;;;;18.08;68.80;100739.84;5012491;28;20049;-92
2022/06/10 05:31:27;;;;;;;;;;;;;;;18.11;68.84;100748.38;5012764;28;20037;-93
2022/06/10 05:36:36;;;;;;;35.33;6.35;;;;;;;18.27;68.24;100744.25;5012191;28;20084;-92
2022/06/10 05:39:03;;;;;;;31.60;6.05;;;;;;;18.22;67.95;100745.50;5025462;28;20037;-92
2022/06/10 05:44:13;;;;;;;37.85;5.72;;;;;;;18.36;67.76;100756.66;5032368;28;20052;-92
2022/06/10 05:46:38;;;;;;;36.20;6.75;;;;;;;18.69;67.36;100757.06;5032143;28;20483;-92
2022/06/10 05:49:03;;;;;;;27.52;5.63;;;;;;;18.76;66.71;100758.97;5032298;28;20067;-91
2022/06/10 05:51:29;;;;;;;26.98;5.15;;;;;;;18.79;67.18;100747.19;5032140;28;20460;-92
2022/06/10 05:53:54;;;;;;;23.23;4.68;;;;;;;18.93;66.76;100754.69;5015930;28;20113;-91
2022/06/10 05:56:20;;;;;;;26.60;6.18;;;;;;;18.81;67.58;100755.91;5012137;28;20531;-91
2022/06/10 05:58:46;;;;;;;36.60;8.07;;;;;;;18.88;66.57;100750.81;5012060;28;20061;-91
2022/06/10 06:01:11;;;;;;;32.55;5.97;;;;;;;18.49;67.57;100762.47;5012100;28;20021;-90
2022/06/10 06:03:37;;;;;;;37.75;6.15;;;;;;;19.04;66.32;100761.63;5016006;28;20467;-92
2022/06/10 06:06:03;;;;;;;35.95;6.70;;;;;;;19.19;64.99;100753.94;5021148;28;20044;-92
2022/06/10 06:08:28;;;;;;;25.48;5.38;;;;;;;19.00;66.40;100766.41;5030317;28;20029;-92
2022/06/10 06:10:54;;;;;;;33.67;6.75;;;;;;;19.10;66.32;100770.84;5020912;28;20013;-92
2022/06/10 06:13:20;;;;;;;34.90;6.30;;;;;;;19.12;66.05;100768.88;5011209;28;20022;-91
2022/06/10 06:15:45;;;;;;;21.48;5.25;;;;;;;19.52;64.13;100764.91;5022121;28;20014;-91
2022/06/10 06:18:11;;;;;;;33.35;6.03;;;;;;;19.14;64.70;100772.22;5015660;28;20025;-91
2022/06/10 06:20:36;;;;;;;39.50;6.95;;;;;;;19.37;65.37;100765.47;5011010;28;20083;-92
2022/06/10 06:23:02;;;;;;;31.67;5.72;;;;;;;19.77;63.77;100769.47;5025205;28;20067;-92
2022/06/10 06:25:29;;;;;;;25.65;5.43;;;;;;;20.11;61.74;100763.34;5028926;28;20499;-90
2022/06/10 06:27:55;;;;;;;34.00;6.85;;;;;;;20.18;61.92;100759.06;5026405;28;20034;-90
2022/06/10 06:30:30;;;;;;;25.17;5.38;;;;;;;20.82;61.25;100768.53;5006211;28;20030;-91
2022/06/10 06:32:56;;;;;;;26.95;5.32;;;;;;;21.06;59.48;100762.44;5018213;28;20060;-92
2022/06/10 06:35:21;;;;;;;23.98;5.07;;;;;;;22.97;54.19;100771.63;5023537;28;20079;-92
2022/06/10 06:37:47;;;;;;;21.30;5.00;;;;;;;23.99;53.03;100766.00;5013188;28;20488;-95
2022/06/10 06:40:12;;;;;;;22.33;5.15;;;;;;;26.75;46.44;100771.97;5018602;28;20150;-94
2022/06/10 06:42:38;;;;;;;22.83;4.95;;;;;;;29.77;39.13;100761.06;5025859;28;20028;-93
2022/06/10 06:45:05;;;;;;;25.08;4.60;;;;;;;31.79;36.16;100770.72;5025076;28;20037;-95
2022/06/10 06:47:31;;;;;;;19.10;4.60;;;;;;;32.32;34.05;100746.34;5030126;28;20029;-94
2022/06/10 06:49:56;;;;;;;13.80;3.65;;;;;;;33.73;33.14;100750.22;5031373;28;20025;-94
2022/06/10 06:52:22;;;;;;;21.63;5.03;;;;;;;33.82;31.65;100737.84;5034306;28;20025;-95
2022/06/10 06:54:47;;;;;;;15.63;4.25;;;;;;;33.31;31.94;100723.44;5033503;28;20113;-93
2022/06/10 06:57:12;;;;;;;18.17;3.83;;;;;;;34.63;29.69;100731.78;5014628;28;20087;-93
2022/06/10 06:59:38;;;;;;;15.75;4.05;;;;;;;36.24;27.84;100766.38;5029296;28;20030;-91
2022/06/10 07:02:04;;;;;;;17.50;4.22;;;;;;;34.70;29.40;100770.63;5023521;28;20029;-96
2022/06/10 07:04:29;;;;;;;19.02;4.32;;;;;;;37.11;27.15;100772.09;5038746;28;20048;-95
2022/06/10 07:06:55;;;;;;;16.23;3.63;;;;;;;37.23;27.49;100717.09;5032877;28;20472;-91
2022/06/10 07:09:20;;;;;;;19.02;4.60;;;;;;;38.75;25.62;100687.75;5029712;28;20025;-96
2022/06/10 07:11:46;;;;;;;21.50;4.78;;;;;;;37.47;26.53;100720.06;5032930;28;20080;-96
2022/06/10 07:14:12;;;;;;;16.88;3.85;;;;;;;38.14;26.11;100675.22;5034492;28;20056;-95
2022/06/10 07:16:37;;;;;;;14.10;3.33;;;;;;;38.93;25.25;100699.97;5035721;28;20044;-91
2022/06/10 07:19:03;;;;;;;18.30;4.22;;;;;;;35.77;28.45;100786.31;5038418;28;20049;-93
2022/06/10 07:21:28;;;;;;;13.02;4.15;;;;;;;36.02;28.04;100768.41;5035163;28;20121;-95
2022/06/10 07:23:54;;;;;;;22.23;3.97;;;;;;;38.47;25.46;100777.88;5033573;28;20537;-94
2022/06/10 07:26:20;;;;;;;20.38;4.85;;;;;;;33.32;30.09;100689.72;5041363;28;20033;-94
2022/06/10 07:28:46;;;;;;;13.55;3.65;;;;;;;33.84;29.31;100751.22;5043503;28;20113;-96
2022/06/10 07:31:11;;;;;;;17.85;3.50;;;;;;;35.27;27.93;100762.97;5038292;28;20029;-96
2022/06/10 07:33:37;;;;;;;12.73;3.42;;;;;;;31.49;33.38;100773.50;5035058;28;20026;-96
2022/06/10 07:36:05;;;;;;;15.05;4.18;;;;;;;31.98;32.31;100801.28;5036835;28;20029;-96
2022/06/10 07:38:31;;;;;;;16.40;3.88;;;;;;;35.57;27.98;100701.47;5037278;28;20048;-96
2022/06/10 07:43:42;;;;;;;17.35;4.20;;;;;;;36.93;27.08;100671.38;5039542;28;20052;-96
2022/06/10 07:46:09;;;;;;;16.77;3.95;;;;;;;39.62;24.04;100659.50;5036019;28;20029;-96
2022/06/10 07:48:34;;;;;;;13.23;3.95;;;;;;;41.05;22.67;100763.19;5035808;28;20022;-96
2022/06/10 07:51:00;;;;;;;15.80;4.00;;;;;;;40.37;21.66;100768.03;5036017;28;20464;-96
2022/06/10 07:53:29;;;;;;;13.63;4.10;;;;;;;40.44;22.62;100666.66;5035687;28;20025;-96
2022/06/10 07:55:55;;;;;;;12.05;3.50;;;;;;;41.68;21.48;100757.16;5037064;28;20076;-96
2022/06/10 07:58:20;;;;;;;14.02;3.67;;;;;;;42.00;21.39;100780.22;5035246;28;20033;-94
2022/06/10 08:00:46;;;;;;;14.55;3.63;;;;;;;39.49;22.61;100792.06;5037672;28;20412;-96
2022/06/10 08:03:11;;;;;;;13.73;3.22;;;;;;;38.25;24.07;100789.22;5036202;28;20026;-95
2022/06/10 08:05:37;;;;;;;15.95;3.67;;;;;;;37.78;23.84;100763.88;5036438;28;20041;-95
2022/06/10 08:08:04;;;;;;;16.85;3.95;;;;;;;36.60;25.80;100752.81;5035965;28;20068;-96
2022/06/10 08:10:33;;;;;;;12.88;3.58;;;;;;;33.71;29.61;100817.72;5035521;28;20032;-96
2022/06/10 08:12:59;;;;;;;14.20;3.60;;;;;;;31.36;33.00;100815.25;5035624;28;20621;-95
2022/06/10 08:15:26;;;;;;;17.20;3.30;;;;;;;32.59;30.12;100825.47;5038485;28;20045;-96
2022/06/10 08:17:52;;;;;;;17.35;4.22;;;;;;;30.00;34.91;100823.53;5038681;28;20025;-96
2022/06/10 08:23:13;;;;;;;12.88;3.67;;;;;;;32.05;30.96;100819.38;5034564;28;20045;-96
2022/06/10 08:25:39;;;;;;;11.45;3.35;;;;;;;36.63;27.06;100796.03;5019199;28;20599;-95
2022/06/10 08:28:04;;;;;;;15.63;3.85;;;;;;;35.20;27.02;100806.06;5016779;28;20025;-95
2022/06/10 08:30:30;;;;;;;14.35;3.72;;;;;;;33.82;29.37;100814.09;5016728;28;20026;-96
2022/06/10 08:32:55;;;;;;;13.38;3.75;;;;;;;38.08;24.92;100803.28;5018821;28;20109;-96
2022/06/10 08:35:21;;;;;;;11.88;3.50;;;;;;;37.46;25.32;100805.22;5019158;28;20026;-96
2022/06/10 08:37:46;;;;;;;17.33;3.85;;;;;;;38.11;24.46;100808.19;5021808;28;20025;-96
2022/06/10 08:40:23;;;;;;;13.65;4.13;;;;;;;37.72;24.13;100808.81;5036253;28;20035;-96
2022/06/10 08:42:52;;;;;;;13.80;3.88;;;;;;;35.43;27.46;100810.34;5023561;28;20467;-96
2022/06/10 08:45:26;;;;;;;15.68;4.22;;;;;;;36.41;26.22;100814.56;5036663;28;20026;-96
2022/06/10 08:48:08;;;;;;;10.60;2.90;;;;;;;38.00;23.74;100810.13;5037446;28;20033;-96
2022/06/10 08:50:51;;;;;;;15.15;3.55;;;;;;;38.40;23.56;100807.53;5037460;28;20567;-96
2022/06/10 08:53:31;;;;;;;15.77;3.47;;;;;;;37.13;24.10;100814.81;5037264;28;20091;-96
2022/06/10 08:56:26;;;;;;;10.48;2.97;;;;;;;39.04;23.80;100809.44;5039527;28;20098;-96
2022/06/10 08:59:01;;;;;;;12.32;3.80;;;;;;;35.58;27.24;100817.84;5032777;28;20041;-96
2022/06/10 09:01:30;;;;;;;15.57;3.40;;;;;;;33.84;29.11;100809.22;5036653;28;20021;-96
2022/06/10 09:04:07;;;;;;;14.00;2.92;;;;;;;36.86;26.05;100816.66;5036118;28;20072;-96
2022/06/10 09:06:42;;;;;;;17.10;3.92;;;;;;;36.35;25.77;100808.25;5038076;28;20540;-96
2022/06/10 09:09:12;;;;;;;17.35;4.05;;;;;;;36.51;26.37;100800.91;5037618;28;20041;-96
2022/06/10 09:11:38;;;;;;;13.50;3.83;;;;;;;34.41;27.24;100805.41;5038237;28;20028;-96
2022/06/10 09:14:20;;;;;;;11.15;3.00;;;;;;;33.72;27.82;100812.03;5026447;28;20543;-96
2022/06/10 09:16:54;;;;;;;19.02;4.10;;;;;;;35.27;26.93;100812.09;5032446;28;20071;-96
2022/06/10 09:19:28;;;;;;;12.60;2.88;;;;;;;37.32;24.58;100813.19;5034774;28;20025;-96
2022/06/10 09:22:03;;;;;;;11.23;2.80;;;;;;;34.51;28.27;100812.91;5036508;28;20037;-96
2022/06/10 09:24:34;;;;;;;13.07;2.95;;;;;;;32.20;30.44;100825.97;5038503;28;20036;-96
2022/06/10 09:27:35;;;;;;;14.93;3.65;;;;;;;34.27;27.94;100812.31;5035520;28;20084;-96
2022/06/10 09:30:04;;;;;;;12.77;2.90;;;;;;;34.45;28.27;100806.56;5027021;28;20038;-96
2022/06/10 09:32:37;;;;;;;9.80;2.63;;;;;;;32.46;29.48;100806.69;5017231;28;20038;-96
2022/06/10 09:35:16;;;;;;;12.40;2.30;;;;;;;31.50;32.52;100809.59;5018290;28;20486;-96
2022/06/10 09:37:41;;;;;;;8.95;2.70;;;;;;;33.24;28.98;100812.59;5016262;28;20033;-96
2022/06/10 09:40:36;;;;;;;11.30;2.90;;;;;;;32.26;30.32;100810.59;5018259;28;20029;-96
2022/06/10 09:43:07;;;;;;;14.98;4.13;;;;;;;28.76;35.08;100817.63;5018917;28;20022;-96
2022/06/10 09:45:35;;;;;;;11.57;3.13;;;;;;;27.95;37.79;100820.72;5019284;28;20030;-96
2022/06/10 09:48:12;;;;;;;14.60;3.45;;;;;;;29.93;34.71;100806.50;5020653;28;20037;-96
2022/06/10 09:50:47;;;;;;;10.27;3.33;;;;;;;32.73;30.37;100804.28;5018383;28;20030;-96
2022/06/10 09:53:45;;;;;;;11.75;3.58;;;;;;;31.74;31.47;100805.88;5020428;28;20018;-96
2022/06/10 09:56:30;;;;;;;14.18;2.97;;;;;;;32.14;29.70;100793.50;5013504;28;20038;-96
2022/06/10 09:59:01;;;;;;;10.27;2.60;;;;;;;33.72;28.15;100800.34;5035113;28;20025;-96
2022/06/10 10:01:37;;;;;;;13.82;3.45;;;;;;;34.44;29.80;100788.56;5037244;28;20034;-96
2022/06/10 10:04:02;;;;;;;9.30;2.08;;;;;;;31.98;31.77;100809.41;5039278;28;20499;-96
2022/06/10 10:06:57;;;;;;;8.70;2.47;;;;;;;33.65;29.54;100802.41;5039083;28;20033;-96
2022/06/10 10:09:44;;;;;;;11.63;2.30;;;;;;;34.11;28.25;100806.63;5040122;28;20067;-96
2022/06/10 10:12:13;;;;;;;13.07;2.90;;;;;;;31.61;31.08;100808.81;5040603;28;20030;-96
2022/06/10 10:15:40;;;;;;;10.13;2.22;;;;;;;32.74;30.00;100798.59;5039165;28;20040;-96
2022/06/10 10:18:29;;;;;;;12.50;2.40;;;;;;;32.92;28.96;100797.56;5009100;28;20037;-96
2022/06/10 10:21:16;;;;;;;9.60;2.72;;;;;;;31.98;30.57;100804.00;5042955;28;20068;-96
2022/06/10 10:23:54;;;;;;;12.73;3.15;;;;;;;31.19;31.04;100803.38;5043782;28;20116;-96
2022/06/10 10:26:37;;;;;;;14.00;3.08;;;;;;;29.73;33.97;100812.09;5043408;28;20114;-95
2022/06/10 10:29:20;;;;;;;11.98;3.38;;;;;;;31.69;31.89;100804.94;5038770;28;20026;-96
2022/06/10 10:32:13;;;;;;;12.05;2.30;;;;;;;31.82;30.20;100807.41;5039774;28;20116;-96
2022/06/10 10:34:42;;;;;;;8.43;2.67;;;;;;;32.64;29.54;100801.09;5043681;28;20467;-96
2022/06/10 10:37:38;;;;;;;9.65;2.28;;;;;;;32.08;30.87;100810.75;5042841;28;20093;-96
2022/06/10 10:40:19;;;;;;;12.52;2.58;;;;;;;34.11;28.58;100794.91;5032369;28;20109;-96
2022/06/10 10:42:47;;;;;;;11.98;2.47;;;;;;;35.14;26.92;100791.50;5044590;28;20462;-96
2022/06/10 10:45:18;;;;;;;11.23;2.53;;;;;;;34.54;25.67;100801.50;5047133;28;20075;-96
2022/06/10 10:47:57;;;;;;;10.45;3.17;;;;;;;35.22;26.61;100798.44;5053575;28;20014;-96
2022/06/10 10:50:31;;;;;;;10.63;2.63;;;;;;;34.49;26.07;100795.97;5044662;28;20084;-96
2022/06/10 10:52:58;;;;;;;9.45;2.40;;;;;;;32.66;27.11;100796.22;5043860;28;20021;-96
2022/06/10 10:55:33;;;;;;;16.45;3.17;;;;;;;32.49;29.93;100790.72;5044899;28;20021;-96
2022/06/10 10:58:15;;;;;;;13.55;2.05;;;;;;;33.00;30.95;100801.81;5049214;28;20029;-96
2022/06/10 11:00:47;;;;;;;11.82;2.50;;;;;;;33.77;28.28;100784.91;5032086;28;20017;-96
2022/06/10 11:03:50;;;;;;;10.80;2.83;;;;;;;33.61;29.06;100780.25;5026966;28;20026;-96
2022/06/10 11:06:26;;;;;;;11.48;2.28;;;;;;;34.31;26.84;100773.41;5017530;28;20041;-96
2022/06/10 11:09:13;;;;;;;9.30;2.75;;;;;;;34.39;26.80;100784.94;5029080;28;20033;-96
2022/06/10 11:11:42;;;;;;;11.52;2.88;;;;;;;33.95;27.26;100783.78;5028712;28;20109;-96
2022/06/10 11:14:32;;;;;;;10.88;3.00;;;;;;;32.38;28.67;100786.13;5026727;28;20041;-96
2022/06/10 11:17:01;;;;;;;10.77;2.55;;;;;;;32.83;28.62;100795.50;5027482;28;20034;-96
2022/06/10 11:19:41;;;;;;;13.93;3.15;;;;;;;32.26;28.79;100783.44;5026043;28;20064;-96
2022/06/10 11:22:06;;;;;;;11.85;2.95;;;;;;;33.27;26.87;100790.31;5030572;28;20100;-96
2022/06/10 11:24:38;;;;;;;11.07;2.90;;;;;;;32.83;28.94;100779.16;5031131;28;20030;-96
2022/06/10 11:27:29;;;;;;;9.60;3.10;;;;;;;31.28;30.61;100780.31;5030521;28;20109;-96
2022/06/10 11:30:05;;;;;;;10.30;2.42;;;;;;;30.19;32.56;100770.19;5041147;28;20042;-96
2022/06/10 11:32:39;;;;;;;12.52;2.80;;;;;;;30.13;30.53;100767.56;5042146;28;20029;-95
2022/06/10 11:35:31;;;;;;;10.10;2.78;;;;;;;30.42;32.78;100793.94;5042958;28;20077;-96
2022/06/10 11:38:03;;;;;;;14.25;3.25;;;;;;;29.53;33.76;100785.16;5041706;28;20092;-96
2022/06/10 11:40:40;;;;;;;9.23;2.35;;;;;;;30.51;33.49;100763.81;5053376;28;20029;-96
2022/06/10 11:43:46;;;;;;;12.57;2.90;;;;;;;29.05;34.17;100773.00;5049892;28;20033;-96
2022/06/10 11:46:48;;;;;;;11.27;2.42;;;;;;;29.47;35.14;100761.72;5055407;28;20410;-96
2022/06/10 11:49:31;;;;;;;12.90;2.90;;;;;;;29.07;35.53;100767.38;5050857;28;20372;-96
2022/06/10 11:52:02;;;;;;;11.40;3.05;;;;;;;29.62;34.65;100767.63;5045209;28;20057;-96
2022/06/10 11:54:51;;;;;;;14.05;4.45;;;;;;;30.18;34.45;100760.44;5049502;28;20024;-96
2022/06/10 12:00:33;;;;;;;11.57;2.88;;;;;;;31.12;32.75;100768.22;5045921;28;20065;-96